Time;durP1;ratioP1;P1;durP2;ratioP2;P2;SDS_P1;SDS_P2;PMS_P1;PMS_P2;Temp;Humidity;BMP_temperature;BMP_pressure;BME280_temperature;BME280_humidity;BME280_pressure;Samples;Min_cycle;Max_cycle;Signal;HPM_P1;HPM_P2
2023/05/08 00:00:25;;;;;;;;;4.00;4.00;;;;;;;;5010568;28;8883;-76
2023/05/08 00:05:07;;;;;;;;;7.00;7.00;;;;;;;;5105350;27;13158;-74
2023/05/08 00:07:32;;;;;;;;;11.75;7.00;;;;;;;;5107210;28;11558;-74
2023/05/08 00:09:57;;;;;;;;;6.50;6.50;;;;;;;;5108504;28;8808;-74
2023/05/08 00:12:23;;;;;;;;;9.75;8.50;;;;;;;;5108562;28;9480;-75
2023/05/08 00:14:48;;;;;;;;;9.25;6.75;;;;;;;;5108440;28;8816;-75
2023/05/08 00:17:13;;;;;;;;;7.25;7.00;;;;;;;;5108437;28;8821;-75
2023/05/08 00:19:38;;;;;;;;;10.25;9.25;;;;;;;;5108159;28;8811;-74
2023/05/08 00:22:04;;;;;;;;;7.50;7.00;;;;;;;;5108370;28;8772;-75
2023/05/08 00:24:29;;;;;;;;;10.00;9.00;;;;;;;;5108330;28;8807;-75
2023/05/08 00:26:55;;;;;;;;;7.00;6.00;;;;;;;;5108278;28;8784;-76
2023/05/08 00:29:20;;;;;;;;;7.25;6.50;;;;;;;;5108127;28;8784;-76
2023/05/08 00:31:45;;;;;;;;;7.25;7.25;;;;;;;;5108308;28;8784;-73
2023/05/08 00:34:10;;;;;;;;;6.25;6.25;;;;;;;;5106719;28;8819;-73
2023/05/08 00:36:36;;;;;;;;;9.00;9.00;;;;;;;;5107994;28;8788;-76
2023/05/08 00:39:01;;;;;;;;;6.25;6.00;;;;;;;;5107986;28;8768;-76
2023/05/08 00:41:26;;;;;;;;;10.75;10.00;;;;;;;;5107913;28;8787;-76
2023/05/08 00:43:51;;;;;;;;;9.00;8.00;;;;;;;;5107892;28;8792;-76
2023/05/08 00:46:17;;;;;;;;;2.00;1.00;;;;;;;;5107935;28;8792;-76
2023/05/08 00:48:42;;;;;;;;;8.50;6.75;;;;;;;;5107714;28;8879;-76
2023/05/08 00:51:08;;;;;;;;;8.00;8.00;;;;;;;;5106386;28;8819;-74
2023/05/08 00:53:35;;;;;;;;;8.75;6.75;;;;;;;;5106409;28;8794;-75
2023/05/08 00:56:01;;;;;;;;;8.00;8.00;;;;;;;;5107835;28;9028;-75
2023/05/08 00:58:26;;;;;;;;;11.00;9.75;;;;;;;;5107691;28;11501;-75
2023/05/08 01:00:54;;;;;;;;;10.00;9.00;;;;;;;;5107511;28;8783;-75
2023/05/08 01:03:19;;;;;;;;;7.25;7.25;;;;;;;;5107335;28;9550;-75
2023/05/08 01:05:44;;;;;;;;;6.50;6.00;;;;;;;;5105913;28;11529;-75
2023/05/08 01:08:10;;;;;;;;;6.75;6.75;;;;;;;;5107402;28;8796;-75
2023/05/08 01:10:44;;;;;;;;;9.00;9.00;;;;;;;;5107342;28;8792;-75
2023/05/08 01:13:23;;;;;;;;;8.50;6.00;;;;;;;;5106128;28;8869;-76
2023/05/08 01:16:07;;;;;;;;;10.75;8.50;;;;;;;;5097270;28;11391;-75
2023/05/08 01:18:37;;;;;;;;;9.25;8.50;;;;;;;;5093490;28;11443;-75
2023/05/08 01:21:05;;;;;;;;;8.25;8.00;;;;;;;;5093484;28;11402;-75
2023/05/08 01:23:49;;;;;;;;;8.50;8.50;;;;;;;;5093369;28;12172;-76
2023/05/08 01:26:21;;;;;;;;;9.50;6.00;;;;;;;;5093397;28;11416;-75
2023/05/08 01:29:05;;;;;;;;;9.75;8.25;;;;;;;;5093365;28;11451;-75
2023/05/08 01:31:39;;;;;;;;;9.75;9.00;;;;;;;;5092054;28;11407;-74
2023/05/08 01:34:25;;;;;;;;;9.50;8.00;;;;;;;;5093315;28;11477;-76
2023/05/08 01:36:56;;;;;;;;;4.50;3.00;;;;;;;;5091436;28;11392;-75
2023/05/08 01:39:30;;;;;;;;;9.00;8.00;;;;;;;;5093142;28;11374;-75
2023/05/08 01:42:01;;;;;;;;;8.25;5.75;;;;;;;;5093226;28;12282;-76
2023/05/08 01:44:47;;;;;;;;;6.00;6.00;;;;;;;;5092914;28;11421;-76
2023/05/08 01:47:14;;;;;;;;;8.00;8.00;;;;;;;;5092549;28;12220;-76
2023/05/08 01:49:45;;;;;;;;;6.00;6.00;;;;;;;;5092828;28;11539;-76
2023/05/08 01:52:36;;;;;;;;;8.75;5.00;;;;;;;;5092783;28;11378;-76
2023/05/08 01:55:08;;;;;;;;;10.25;6.50;;;;;;;;5091526;28;11150;-76
2023/05/08 01:57:36;;;;;;;;;10.00;8.00;;;;;;;;5092583;28;11381;-77
2023/05/08 02:00:02;;;;;;;;;10.25;8.00;;;;;;;;5092755;28;11488;-77
2023/05/08 02:02:30;;;;;;;;;7.25;7.00;;;;;;;;5092619;28;11428;-76
2023/05/08 02:04:55;;;;;;;;;8.25;8.25;;;;;;;;5092551;28;11423;-75
2023/05/08 02:07:21;;;;;;;;;9.50;9.00;;;;;;;;5092559;28;12289;-76
2023/05/08 02:09:47;;;;;;;;;9.50;9.00;;;;;;;;5092593;28;8823;-76
2023/05/08 02:12:13;;;;;;;;;12.00;10.00;;;;;;;;5092478;28;9522;-75
2023/05/08 02:14:39;;;;;;;;;12.25;12.00;;;;;;;;5092517;28;8788;-75
2023/05/08 02:17:08;;;;;;;;;12.00;12.00;;;;;;;;5092419;28;11438;-76
2023/05/08 02:19:34;;;;;;;;;11.75;11.00;;;;;;;;5092285;28;11421;-76
2023/05/08 02:22:00;;;;;;;;;9.75;9.75;;;;;;;;5092440;28;11472;-76
2023/05/08 02:24:25;;;;;;;;;6.50;6.00;;;;;;;;5091016;28;11419;-76
2023/05/08 02:26:51;;;;;;;;;9.75;8.00;;;;;;;;5091401;28;8806;-76
2023/05/08 02:29:17;;;;;;;;;9.00;9.00;;;;;;;;5091129;28;8802;-76
2023/05/08 02:31:43;;;;;;;;;10.00;10.00;;;;;;;;5092341;28;9498;-76
2023/05/08 02:34:09;;;;;;;;;8.25;7.00;;;;;;;;5092165;28;8819;-77
2023/05/08 02:36:36;;;;;;;;;8.25;8.25;;;;;;;;5092056;28;11373;-76
2023/05/08 02:39:02;;;;;;;;;8.50;8.50;;;;;;;;5092137;28;8792;-77
2023/05/08 02:41:29;;;;;;;;;10.75;10.00;;;;;;;;5091880;28;11467;-75
2023/05/08 02:43:54;;;;;;;;;7.75;7.75;;;;;;;;5092019;28;8834;-75
2023/05/08 02:46:20;;;;;;;;;7.50;7.50;;;;;;;;5091914;28;12126;-75
2023/05/08 02:48:57;;;;;;;;;9.25;9.25;;;;;;;;5091938;28;8760;-75
2023/05/08 02:51:28;;;;;;;;;9.25;8.75;;;;;;;;5091990;28;8881;-77
2023/05/08 02:54:31;;;;;;;;;8.75;7.75;;;;;;;;5090416;28;11476;-77
2023/05/08 02:57:00;;;;;;;;;8.25;7.00;;;;;;;;5069178;28;12307;-76
2023/05/08 02:59:25;;;;;;;;;9.25;9.00;;;;;;;;5069059;28;11451;-76
2023/05/08 03:01:53;;;;;;;;;15.50;13.50;;;;;;;;5068997;28;11401;-76
2023/05/08 03:04:22;;;;;;;;;14.50;14.50;;;;;;;;5068740;28;8816;-76
2023/05/08 03:06:48;;;;;;;;;13.00;13.00;;;;;;;;5068959;28;11409;-76
2023/05/08 03:09:17;;;;;;;;;10.75;9.50;;;;;;;;5068775;28;11488;-76
2023/05/08 03:11:43;;;;;;;;;11.00;10.00;;;;;;;;5068881;28;11457;-77
2023/05/08 03:14:10;;;;;;;;;9.00;9.00;;;;;;;;5068749;28;11396;-73
2023/05/08 03:16:37;;;;;;;;;10.75;9.00;;;;;;;;5052011;28;11404;-73
2023/05/08 03:19:06;;;;;;;;;11.00;9.75;;;;;;;;5068587;28;11385;-73
2023/05/08 03:21:31;;;;;;;;;10.25;9.00;;;;;;;;5068614;28;11409;-73
2023/05/08 03:23:58;;;;;;;;;10.00;10.00;;;;;;;;5068276;28;11418;-73
2023/05/08 03:26:24;;;;;;;;;15.75;10.50;;;;;;;;5068777;28;8870;-73
2023/05/08 03:28:50;;;;;;;;;13.75;11.00;;;;;;;;5090273;28;11408;-73
2023/05/08 03:31:17;;;;;;;;;9.75;9.50;;;;;;;;5091204;28;8784;-71
2023/05/08 03:33:43;;;;;;;;;10.50;8.00;;;;;;;;5091188;28;8894;-73
2023/05/08 03:36:08;;;;;;;;;10.50;10.50;;;;;;;;5091127;28;11594;-73
2023/05/08 03:38:34;;;;;;;;;13.25;12.25;;;;;;;;5090761;28;8834;-74
2023/05/08 03:40:59;;;;;;;;;13.50;12.50;;;;;;;;5089721;28;8792;-74
2023/05/08 03:43:24;;;;;;;;;13.50;12.00;;;;;;;;5091493;28;8850;-72
2023/05/08 03:45:50;;;;;;;;;11.25;11.25;;;;;;;;5089521;28;8808;-72
2023/05/08 03:48:17;;;;;;;;;12.00;11.00;;;;;;;;5091305;28;8824;-72
2023/05/08 03:50:43;;;;;;;;;10.25;10.00;;;;;;;;5089599;28;8804;-73
2023/05/08 03:53:09;;;;;;;;;14.50;13.75;;;;;;;;5089353;28;11510;-73
2023/05/08 03:55:35;;;;;;;;;12.25;12.25;;;;;;;;5090561;28;11488;-72
2023/05/08 03:58:23;;;;;;;;;13.00;12.75;;;;;;;;5090633;28;8900;-72
2023/05/08 04:01:10;;;;;;;;;10.75;10.75;;;;;;;;5090925;28;8799;-72
2023/05/08 04:03:54;;;;;;;;;10.25;9.00;;;;;;;;5090378;28;11735;-72
2023/05/08 04:06:27;;;;;;;;;10.50;9.25;;;;;;;;5089353;28;11513;-72
2023/05/08 04:09:07;;;;;;;;;10.50;10.25;;;;;;;;5090350;28;11448;-72
2023/05/08 04:11:48;;;;;;;;;13.00;12.00;;;;;;;;5090529;28;11472;-72
2023/05/08 04:14:18;;;;;;;;;12.25;10.00;;;;;;;;5090478;28;11550;-72
2023/05/08 04:16:47;;;;;;;;;8.25;8.00;;;;;;;;5090506;28;11461;-72
